createdAt,value
2019-05-25T00:00:20.138Z,4.23
2019-05-25T00:02:56.694Z,3.80
2019-05-25T00:05:28.443Z,3.90
2019-05-25T00:08:06.893Z,4.03
2019-05-25T00:10:38.615Z,3.67
2019-05-25T00:13:12.048Z,4.00
2019-05-25T00:15:41.604Z,4.07
2019-05-25T00:18:11.507Z,3.63
2019-05-25T00:20:41.207Z,3.83
2019-05-25T00:23:10.781Z,4.07
2019-05-25T00:25:40.301Z,4.83
2019-05-25T00:28:10.038Z,4.90
2019-05-25T00:30:39.538Z,5.30
2019-05-25T00:33:09.055Z,4.33
2019-05-25T00:35:38.841Z,4.97
2019-05-25T00:38:08.480Z,4.47
2019-05-25T00:40:37.945Z,4.53
2019-05-25T00:43:07.749Z,3.93
2019-05-25T00:45:37.816Z,4.03
2019-05-25T00:48:19.354Z,4.80
2019-05-25T00:51:11.862Z,4.77
2019-05-25T00:53:41.540Z,3.57
2019-05-25T00:56:13.684Z,3.90
2019-05-25T00:58:47.746Z,3.80
2019-05-25T01:01:20.547Z,3.67
2019-05-25T01:03:53.733Z,3.40
2019-05-25T01:06:32.163Z,3.50
2019-05-25T01:14:30.724Z,4.17
2019-05-25T01:17:00.373Z,3.33
2019-05-25T01:19:58.136Z,3.53
2019-05-25T02:08:42.240Z,5.53
2019-05-25T02:11:11.903Z,4.90
2019-05-25T02:14:23.023Z,4.60
2019-05-25T02:26:05.969Z,4.30
2019-05-25T02:28:35.675Z,4.87
2019-05-25T02:31:06.647Z,4.40
2019-05-25T02:33:36.334Z,4.80
2019-05-25T02:36:06.018Z,4.67
2019-05-25T02:38:38.521Z,4.33
2019-05-25T02:41:09.829Z,3.97
2019-05-25T02:43:39.572Z,4.17
2019-05-25T02:46:09.361Z,4.53
2019-05-25T02:48:39.731Z,4.17
2019-05-25T02:51:09.867Z,4.13
2019-05-25T02:53:39.609Z,5.30
2019-05-25T02:56:09.778Z,4.70
2019-05-25T02:58:56.779Z,3.80
2019-05-25T03:01:26.294Z,4.40
2019-05-25T03:03:56.663Z,5.60
2019-05-25T03:06:35.393Z,4.50
2019-05-25T03:09:11.261Z,4.57
2019-05-25T03:11:56.310Z,4.50
2019-05-25T03:20:58.634Z,4.37
2019-05-25T03:23:36.828Z,6.00
2019-05-25T03:26:08.533Z,5.40
2019-05-25T03:28:40.449Z,4.80
2019-05-25T03:58:43.344Z,5.53
2019-05-25T04:01:13.039Z,7.17
2019-05-25T04:03:42.656Z,8.33
2019-05-25T04:06:12.334Z,7.60
2019-05-25T04:08:41.999Z,7.30
2019-05-25T04:11:11.989Z,6.93
2019-05-25T04:13:41.606Z,8.30
2019-05-25T04:16:11.254Z,8.10
2019-05-25T04:18:43.434Z,7.77
2019-05-25T04:21:16.697Z,8.47
2019-05-25T04:23:47.829Z,8.30
2019-05-25T04:26:22.359Z,8.87
2019-05-25T04:28:49.345Z,9.50
2019-05-25T04:31:19.018Z,10.60
2019-05-25T04:33:49.327Z,9.50
2019-05-25T04:36:19.141Z,9.67
2019-05-25T04:38:51.898Z,9.27
2019-05-25T04:41:22.927Z,10.73
2019-05-25T04:43:52.607Z,10.00
2019-05-25T04:46:22.247Z,9.87
2019-05-25T04:48:54.742Z,11.03
2019-05-25T04:51:24.492Z,9.07
2019-05-25T04:53:54.186Z,11.10
2019-05-25T04:56:38.194Z,10.13
2019-05-25T04:58:55.844Z,10.47
2019-05-25T05:01:25.503Z,9.60
2019-05-25T05:03:55.139Z,10.83
2019-05-25T05:06:26.663Z,10.77
2019-05-25T05:08:56.326Z,9.77
2019-05-25T05:11:25.976Z,9.53
2019-05-25T05:13:55.520Z,10.20
2019-05-25T05:16:25.081Z,9.70
2019-05-25T05:18:54.665Z,9.40
2019-05-25T05:21:24.190Z,9.07
2019-05-25T05:23:53.706Z,8.73
2019-05-25T05:26:23.103Z,8.83
2019-05-25T05:28:52.582Z,8.60
2019-05-25T05:31:23.794Z,8.97
2019-05-25T05:33:53.637Z,8.73
2019-05-25T05:36:28.346Z,7.73
2019-05-25T05:38:59.995Z,8.30
2019-05-25T05:41:32.089Z,7.97
2019-05-25T05:44:04.529Z,7.93
2019-05-25T05:46:35.259Z,8.97
2019-05-25T05:49:05.269Z,10.60
2019-05-25T05:51:36.679Z,10.20
2019-05-25T05:54:07.362Z,10.33
2019-05-25T05:56:36.959Z,10.70
2019-05-25T05:59:06.592Z,11.13
2019-05-25T06:01:39.030Z,9.63
2019-05-25T06:04:08.612Z,9.93
2019-05-25T06:06:38.271Z,10.37
2019-05-25T06:09:08.381Z,10.53
2019-05-25T06:11:37.991Z,9.90
2019-05-25T06:14:07.631Z,10.37
2019-05-25T06:16:37.633Z,9.37
2019-05-25T06:19:08.064Z,10.73
2019-05-25T06:21:37.654Z,10.07
2019-05-25T06:24:07.290Z,10.53
2019-05-25T06:26:36.979Z,9.20
2019-05-25T06:32:03.319Z,9.17
2019-05-25T06:34:32.845Z,10.50
2019-05-25T06:37:32.714Z,9.83
2019-05-25T06:42:49.219Z,9.83
2019-05-25T06:45:19.238Z,9.80
2019-05-25T06:48:01.576Z,10.43
2019-05-25T06:50:31.469Z,9.90
2019-05-25T06:53:10.271Z,10.37
2019-05-25T06:55:40.108Z,9.73
2019-05-25T06:58:09.785Z,10.53
2019-05-25T07:00:50.005Z,10.30
2019-05-25T07:06:13.287Z,10.20
2019-05-25T07:08:42.795Z,10.07
2019-05-25T07:11:12.477Z,10.10
2019-05-25T07:13:52.881Z,10.10
2019-05-25T07:16:22.390Z,9.57
2019-05-25T07:18:57.463Z,9.37
2019-05-25T07:21:27.119Z,9.63
2019-05-25T07:23:56.683Z,9.90
2019-05-25T07:26:26.325Z,10.03
2019-05-25T07:28:55.859Z,9.67
2019-05-25T07:31:33.126Z,9.73
2019-05-25T07:34:04.476Z,9.70
2019-05-25T07:36:34.540Z,10.27
2019-05-25T07:39:08.758Z,8.90
2019-05-25T07:41:40.866Z,9.50
2019-05-25T07:44:10.449Z,8.63
2019-05-25T07:46:40.429Z,8.50
2019-05-25T07:49:09.913Z,9.67
2019-05-25T07:51:39.526Z,9.43
2019-05-25T07:54:09.089Z,9.47
2019-05-25T07:56:38.785Z,8.60
2019-05-25T07:59:09.383Z,9.27
2019-05-25T08:01:39.019Z,9.73
2019-05-25T08:04:08.796Z,9.80
2019-05-25T08:06:38.248Z,9.00
2019-05-25T08:09:08.736Z,9.20
2019-05-25T08:11:38.404Z,9.60
2019-05-25T08:14:07.907Z,9.47
2019-05-25T08:16:37.566Z,8.73
2019-05-25T08:19:07.194Z,9.37
2019-05-25T08:21:49.513Z,8.70
2019-05-25T08:24:19.048Z,9.43
2019-05-25T08:26:48.672Z,8.53
2019-05-25T08:29:18.364Z,8.43
2019-05-25T08:31:48.041Z,7.97
2019-05-25T08:34:17.759Z,7.43
2019-05-25T08:36:47.464Z,9.00
2019-05-25T08:39:17.363Z,8.43
2019-05-25T08:41:47.396Z,8.13
2019-05-25T08:44:17.110Z,9.10
2019-05-25T08:46:46.827Z,8.70
2019-05-25T08:49:16.506Z,9.07
2019-05-25T08:51:48.784Z,8.80
2019-05-25T08:54:18.617Z,8.73
2019-05-25T08:56:50.136Z,9.00
2019-05-25T08:59:22.954Z,8.33
2019-05-25T09:01:52.728Z,9.80
2019-05-25T09:04:25.538Z,9.07
2019-05-25T09:06:53.863Z,8.77
2019-05-25T09:09:24.259Z,8.03
2019-05-25T09:12:02.601Z,6.90
2019-05-25T09:14:34.538Z,7.03
2019-05-25T09:17:57.709Z,8.30
2019-05-25T09:20:46.268Z,8.23
2019-05-25T09:23:20.769Z,7.80
2019-05-25T09:40:48.878Z,7.17
2019-05-25T10:01:39.000Z,4.67
2019-05-25T10:04:20.522Z,6.10
2019-05-25T10:13:02.761Z,4.90
2019-05-25T10:21:59.415Z,5.10
2019-05-25T11:00:41.481Z,5.17
2019-05-25T11:06:45.984Z,4.23
2019-05-25T11:17:44.208Z,4.00
2019-05-25T11:20:20.485Z,4.47
2019-05-25T11:22:50.068Z,4.80
2019-05-25T11:25:19.705Z,4.17
2019-05-25T11:28:01.392Z,4.83
2019-05-25T11:30:31.233Z,4.37
2019-05-25T11:33:00.981Z,4.03
2019-05-25T11:44:52.063Z,4.53
2019-05-25T11:52:58.596Z,4.33
2019-05-25T12:01:38.649Z,4.73
2019-05-25T12:07:15.685Z,3.43
2019-05-25T12:10:00.280Z,4.73
2019-05-25T12:12:52.719Z,4.10
2019-05-25T12:21:05.317Z,4.40
2019-05-25T12:23:58.042Z,3.43
2019-05-25T12:26:54.104Z,3.40
2019-05-25T12:29:23.692Z,3.60
2019-05-25T12:32:03.669Z,3.13
2019-05-25T12:34:34.423Z,3.13
2019-05-25T12:37:12.873Z,4.93
2019-05-25T12:39:42.737Z,6.27
2019-05-25T12:45:18.872Z,6.13
2019-05-25T12:54:02.849Z,4.75
2019-05-25T13:05:40.662Z,4.43
2019-05-25T13:11:39.570Z,3.27
2019-05-25T13:14:14.574Z,3.90
2019-05-25T13:17:35.936Z,3.07
2019-05-25T13:19:58.888Z,3.27
2019-05-25T13:22:45.807Z,3.70
2019-05-25T13:25:15.830Z,3.50
2019-05-25T13:31:14.737Z,3.20
2019-05-25T13:37:20.354Z,3.20
2019-05-25T13:40:00.666Z,3.27
2019-05-25T13:42:44.821Z,2.90
2019-05-25T13:48:10.679Z,2.70
2019-05-25T13:50:44.536Z,2.10
2019-05-25T13:53:26.717Z,2.43
2019-05-25T13:56:00.906Z,2.50
2019-05-25T13:58:43.909Z,2.00
2019-05-25T14:04:25.529Z,2.23
2019-05-25T14:09:57.318Z,2.23
2019-05-25T14:14:56.360Z,2.23
2019-05-25T14:17:34.137Z,2.20
2019-05-25T14:20:13.457Z,2.70
2019-05-25T14:22:43.647Z,3.13
2019-05-25T14:25:15.477Z,2.73
2019-05-25T14:27:46.401Z,2.60
2019-05-25T14:30:15.926Z,2.80
2019-05-25T14:32:51.067Z,2.83
2019-05-25T14:38:33.213Z,3.03
2019-05-25T14:41:02.927Z,3.30
2019-05-25T14:43:32.669Z,3.00
2019-05-25T14:46:10.348Z,2.60
2019-05-25T14:48:46.823Z,3.10
2019-05-25T14:51:17.427Z,3.17
2019-05-25T14:53:56.806Z,2.53
2019-05-25T14:56:26.709Z,3.20
2019-05-25T14:59:09.293Z,2.17
2019-05-25T15:01:38.823Z,2.47
2019-05-25T15:04:45.030Z,1.97
2019-05-25T15:07:14.606Z,2.27
2019-05-25T15:09:45.703Z,2.43
2019-05-25T15:12:16.662Z,2.10
2019-05-25T15:14:47.333Z,1.70
2019-05-25T15:17:20.899Z,1.90
2019-05-25T15:23:30.279Z,1.97
2019-05-25T15:28:42.959Z,2.70
2019-05-25T15:34:28.101Z,2.63
2019-05-25T15:37:01.432Z,2.60
2019-05-25T15:39:31.310Z,3.27
2019-05-25T15:42:06.569Z,3.70
2019-05-25T15:44:43.183Z,3.20
2019-05-25T15:47:20.707Z,3.77
2019-05-25T15:55:37.714Z,3.70
2019-05-25T16:01:23.197Z,3.73
2019-05-25T16:06:50.782Z,4.10
2019-05-25T16:09:27.889Z,2.85
2019-05-25T16:18:04.505Z,3.23
2019-05-25T16:20:33.972Z,3.20
2019-05-25T16:23:03.620Z,3.40
2019-05-25T16:25:33.322Z,3.67
2019-05-25T16:28:03.168Z,3.50
2019-05-25T16:33:14.876Z,4.20
2019-05-25T16:35:46.289Z,4.40
2019-05-25T16:41:05.194Z,4.90
2019-05-25T16:46:27.952Z,4.00
2019-05-25T16:51:55.653Z,3.10
2019-05-25T16:54:33.792Z,3.50
2019-05-25T16:58:13.678Z,2.83
2019-05-25T17:03:39.303Z,2.97
2019-05-25T17:06:11.812Z,3.27
2019-05-25T17:08:56.922Z,2.50
2019-05-25T17:11:49.994Z,1.90
2019-05-25T17:14:42.469Z,2.17
2019-05-25T17:17:12.912Z,2.33
2019-05-25T17:19:42.760Z,2.27
2019-05-25T17:38:04.605Z,2.00
2019-05-25T18:34:22.029Z,5.30
2019-05-25T19:03:59.689Z,7.73
2019-05-25T19:12:48.086Z,6.95
2019-05-25T19:50:43.834Z,8.20
2019-05-25T19:53:49.227Z,7.93
2019-05-25T19:56:34.837Z,7.43
2019-05-25T19:59:07.491Z,7.87
2019-05-25T20:01:40.180Z,8.70
2019-05-25T20:04:30.881Z,8.03
2019-05-25T20:39:50.765Z,6.13
2019-05-25T20:42:34.120Z,5.87
2019-05-25T20:51:18.137Z,4.47
2019-05-25T20:54:24.984Z,5.80
2019-05-25T20:56:54.932Z,5.47
2019-05-25T20:59:29.399Z,4.20
2019-05-25T21:02:19.793Z,3.70
2019-05-25T21:04:51.659Z,4.97
2019-05-25T21:07:53.677Z,5.20
2019-05-25T21:10:38.580Z,6.00
2019-05-25T21:13:25.546Z,6.07
2019-05-25T21:18:45.185Z,6.93
2019-05-25T21:21:28.880Z,6.43
2019-05-25T21:24:04.184Z,7.67
2019-05-25T21:26:34.265Z,7.80
2019-05-25T21:29:10.903Z,7.37
2019-05-25T21:32:01.934Z,6.47
2019-05-25T21:34:31.908Z,7.17
2019-05-25T21:39:58.167Z,6.57
2019-05-25T21:42:28.824Z,6.43
2019-05-25T21:44:58.427Z,7.57
2019-05-25T21:47:28.371Z,7.83
2019-05-25T21:49:58.216Z,6.47
2019-05-25T21:52:27.806Z,7.17
2019-05-25T21:54:57.385Z,7.20
2019-05-25T21:57:26.915Z,6.70
2019-05-25T21:59:56.424Z,6.87
2019-05-25T22:02:25.940Z,6.90
2019-05-25T22:04:55.542Z,7.47
2019-05-25T22:10:01.822Z,5.57
2019-05-25T22:12:31.726Z,5.80
2019-05-25T22:15:04.058Z,5.13
2019-05-25T22:17:34.375Z,5.10
2019-05-25T22:20:18.140Z,5.17
2019-05-25T22:22:47.726Z,5.33
2019-05-25T22:25:18.917Z,5.37
2019-05-25T22:27:48.649Z,4.57
2019-05-25T22:30:18.289Z,4.10
2019-05-25T22:33:06.600Z,4.47
2019-05-25T22:35:36.421Z,4.13
2019-05-25T22:38:21.778Z,4.13
2019-05-25T22:43:35.867Z,4.33
2019-05-25T22:46:05.553Z,3.50
2019-05-25T22:51:22.093Z,3.13
2019-05-25T22:53:56.714Z,4.37
2019-05-25T22:59:57.355Z,3.73
2019-05-25T23:02:27.180Z,2.93
2019-05-25T23:04:57.074Z,3.20
2019-05-25T23:10:40.341Z,3.73
2019-05-25T23:13:16.562Z,3.27
2019-05-25T23:18:21.804Z,3.47
2019-05-25T23:20:55.369Z,3.50
2019-05-25T23:23:34.960Z,3.83
2019-05-25T23:26:04.756Z,3.50
2019-05-25T23:28:35.131Z,3.57
2019-05-25T23:31:04.713Z,4.20
2019-05-25T23:33:41.165Z,3.73
2019-05-25T23:36:10.713Z,3.20
2019-05-25T23:39:28.212Z,3.87
2019-05-25T23:48:24.646Z,3.40
